Anchor Point, Alaska
Current Conditions -  °F | °C
As of 4:53 AM on Saturday 22 Nov 2014 (Local Time) from PAHO Reporting Station
Broken Clouds Broken Clouds  
Wind Chill: 38°   Ceiling: 4100
Heat Index: 38°   Visibility: 10mi
Dew Point: 34°   Wind: 0mph
Humidity: 86%   Direction: NA
Pressure: 29"   Gusts: NA
Location:  59.77°N, 151.82°W
Report Text: PAHO 221353Z AUTO 00000KT 10SM BKN041 BKN055 03/01 A2900 RMK AO2 SLP822 T00330011 TSNO $
Loading
Personal Weather Stations






























Interactive Weather Map New forecast layout! Learn more

10-Day Weather Forecast

Advertisements
Track Severe Weather on mobile